Time;durP1;ratioP1;P1;durP2;ratioP2;P2;SDS_P1;SDS_P2;PMS_P1;PMS_P2;Temp;Humidity;BMP_temperature;BMP_pressure;BME280_temperature;BME280_humidity;BME280_pressure;Samples;Min_cycle;Max_cycle;Signal;HPM_P1;HPM_P2
2021/07/20 00:02:05;;;;;;;8.15;5.95;;;22.00;66.50;;;;;;5097394;28;20092;-73
2021/07/20 00:04:31;;;;;;;8.10;6.88;;;22.00;66.60;;;;;;5096766;28;20051;-73
2021/07/20 00:06:57;;;;;;;7.45;6.38;;;22.00;66.50;;;;;;5097254;28;20435;-73
2021/07/20 00:09:23;;;;;;;8.98;6.47;;;21.90;66.50;;;;;;5097625;28;20048;-73
2021/07/20 00:11:49;;;;;;;7.57;5.93;;;22.00;66.60;;;;;;5096779;28;20101;-73
2021/07/20 00:14:14;;;;;;;8.13;6.65;;;21.90;66.60;;;;;;5096590;28;20048;-73
2021/07/20 00:16:40;;;;;;;7.90;6.32;;;21.90;66.50;;;;;;5096566;28;20044;-73
2021/07/20 00:19:06;;;;;;;8.32;6.53;;;21.90;66.50;;;;;;5096796;28;20040;-73
2021/07/20 00:21:32;;;;;;;8.90;6.68;;;21.90;66.50;;;;;;5096982;28;20048;-73
2021/07/20 00:23:58;;;;;;;8.23;6.53;;;21.90;66.60;;;;;;5096558;28;20481;-73
2021/07/20 00:26:23;;;;;;;7.43;5.70;;;21.90;66.50;;;;;;5096464;28;20059;-73
2021/07/20 00:28:49;;;;;;;7.45;6.10;;;21.90;66.50;;;;;;5096377;28;20127;-73
2021/07/20 00:31:15;;;;;;;7.30;6.35;;;21.90;66.60;;;;;;5096433;28;20100;-73
2021/07/20 00:33:41;;;;;;;8.32;5.93;;;21.90;66.60;;;;;;5096459;28;20400;-73
2021/07/20 00:36:07;;;;;;;8.25;6.05;;;21.90;66.50;;;;;;5096867;28;20339;-73
2021/07/20 00:38:34;;;;;;;7.40;5.60;;;21.90;66.50;;;;;;5096425;28;20063;-73
2021/07/20 00:41:00;;;;;;;6.90;5.93;;;21.90;66.50;;;;;;5096213;28;20355;-73
2021/07/20 00:43:26;;;;;;;7.55;6.15;;;21.90;66.60;;;;;;5096186;28;20044;-73
2021/07/20 00:45:51;;;;;;;7.82;6.15;;;21.90;66.60;;;;;;5096791;28;20044;-73
2021/07/20 00:48:17;;;;;;;7.32;6.07;;;21.90;66.60;;;;;;5096318;28;20044;-74
2021/07/20 00:50:45;;;;;;;7.72;5.20;;;21.90;66.60;;;;;;5096291;28;20085;-74
2021/07/20 00:53:12;;;;;;;7.18;5.53;;;21.90;66.60;;;;;;5096036;28;20092;-73
2021/07/20 00:55:39;;;;;;;7.22;5.45;;;21.90;66.60;;;;;;5096266;28;20091;-73
2021/07/20 00:58:08;;;;;;;9.30;6.57;;;21.90;66.60;;;;;;5095635;28;20101;-73
2021/07/20 01:00:35;;;;;;;8.55;6.65;;;21.90;66.60;;;;;;5096114;28;20067;-73
2021/07/20 01:03:01;;;;;;;8.25;5.82;;;21.90;66.60;;;;;;5095596;28;20040;-73
2021/07/20 01:05:28;;;;;;;8.77;6.43;;;21.90;66.60;;;;;;5095902;28;20036;-73
2021/07/20 01:07:54;;;;;;;8.00;6.00;;;21.90;66.60;;;;;;5095869;28;20477;-73
2021/07/20 01:10:22;;;;;;;7.82;6.03;;;21.90;66.60;;;;;;5095741;28;20036;-74
2021/07/20 01:12:49;;;;;;;7.20;5.75;;;21.90;66.60;;;;;;5095618;28;20044;-73
2021/07/20 01:15:18;;;;;;;7.13;5.57;;;21.90;66.70;;;;;;5095806;28;20409;-73
2021/07/20 01:17:45;;;;;;;7.47;5.90;;;21.80;66.60;;;;;;5095681;28;20050;-73
2021/07/20 01:20:14;;;;;;;7.25;6.00;;;21.80;66.60;;;;;;5095588;28;20040;-73
2021/07/20 01:22:50;;;;;;;7.22;6.20;;;21.80;66.60;;;;;;5095568;28;20134;-73
2021/07/20 01:25:16;;;;;;;7.35;5.85;;;21.80;66.60;;;;;;5096065;28;20067;-73
2021/07/20 01:27:47;;;;;;;7.05;5.53;;;21.80;66.60;;;;;;5095406;28;20123;-73
2021/07/20 01:30:14;;;;;;;6.43;5.45;;;21.80;66.50;;;;;;5095607;28;20439;-73
2021/07/20 01:32:42;;;;;;;6.68;5.50;;;21.80;66.60;;;;;;5096128;28;20098;-73
2021/07/20 01:35:09;;;;;;;6.60;5.20;;;21.80;66.60;;;;;;5095387;28;20047;-73
2021/07/20 01:37:36;;;;;;;7.25;5.65;;;21.80;66.60;;;;;;5095256;28;20036;-73
2021/07/20 01:40:05;;;;;;;6.22;5.38;;;21.80;66.60;;;;;;5095577;28;20061;-73
2021/07/20 01:42:33;;;;;;;7.63;5.82;;;21.80;66.50;;;;;;5095393;28;20109;-73
2021/07/20 01:45:05;;;;;;;6.97;5.10;;;21.80;66.50;;;;;;5095225;28;20052;-73
2021/07/20 01:47:32;;;;;;;7.45;5.78;;;21.80;66.50;;;;;;5095664;28;20062;-73
2021/07/20 01:49:59;;;;;;;7.20;5.75;;;21.80;66.50;;;;;;5095744;28;20048;-73
2021/07/20 01:52:26;;;;;;;6.65;5.65;;;21.80;66.50;;;;;;5095051;28;20047;-73
2021/07/20 01:54:52;;;;;;;6.95;5.32;;;21.80;66.60;;;;;;5095012;28;20040;-74
2021/07/20 01:57:18;;;;;;;6.90;5.25;;;21.80;66.60;;;;;;5095124;28;20101;-73
2021/07/20 01:59:44;;;;;;;7.70;5.30;;;21.80;66.60;;;;;;5095042;28;20054;-73
2021/07/20 02:10:36;;;;;;;7.43;5.55;;;21.80;66.60;;;;;;5095035;28;20067;-73
2021/07/20 02:13:04;;;;;;;6.25;5.03;;;21.80;66.60;;;;;;5095394;28;20044;-73
2021/07/20 02:15:31;;;;;;;7.63;5.40;;;21.80;66.60;;;;;;5095589;28;20173;-74
2021/07/20 02:17:59;;;;;;;6.28;5.18;;;21.80;66.60;;;;;;5094811;28;20044;-73
2021/07/20 02:20:29;;;;;;;6.95;5.53;;;21.70;66.50;;;;;;5095510;28;20048;-73
2021/07/20 02:22:57;;;;;;;6.63;5.32;;;21.80;66.60;;;;;;5094924;28;20036;-73
2021/07/20 02:25:26;;;;;;;6.70;5.45;;;21.70;66.50;;;;;;5094772;28;20036;-74
2021/07/20 02:27:54;;;;;;;6.90;5.57;;;21.70;66.50;;;;;;5097421;28;20123;-73
2021/07/20 02:30:20;;;;;;;6.75;5.15;;;21.70;66.50;;;;;;5098875;28;20048;-73
2021/07/20 02:32:47;;;;;;;7.35;5.38;;;21.70;66.50;;;;;;5098813;28;20352;-73
2021/07/20 02:35:21;;;;;;;7.70;5.45;;;21.70;66.50;;;;;;5098755;28;20445;-73
2021/07/20 02:37:49;;;;;;;6.70;5.25;;;21.70;66.50;;;;;;5099280;28;20052;-73
2021/07/20 02:40:17;;;;;;;6.85;5.65;;;21.70;66.50;;;;;;5098443;28;20119;-74
2021/07/20 02:42:44;;;;;;;6.63;5.28;;;21.70;66.50;;;;;;5099253;28;20142;-73
2021/07/20 02:45:11;;;;;;;6.50;5.50;;;21.70;66.50;;;;;;5098594;28;20075;-73
2021/07/20 02:47:37;;;;;;;6.18;5.20;;;21.70;66.50;;;;;;5098457;28;20044;-73
2021/07/20 02:50:12;;;;;;;5.93;4.82;;;21.70;66.50;;;;;;5098500;28;20058;-73
2021/07/20 02:52:43;;;;;;;6.72;5.47;;;21.70;66.50;;;;;;5098069;28;20058;-74
2021/07/20 02:55:10;;;;;;;6.53;5.10;;;21.70;66.50;;;;;;5098467;28;20354;-73
2021/07/20 02:57:37;;;;;;;6.75;5.43;;;21.70;66.50;;;;;;5098460;28;20048;-73
2021/07/20 03:00:07;;;;;;;7.32;5.20;;;21.70;66.50;;;;;;5098183;28;20040;-73
2021/07/20 03:02:38;;;;;;;6.90;5.60;;;21.70;66.50;;;;;;5098044;28;20036;-73
2021/07/20 03:05:05;;;;;;;6.40;4.78;;;21.70;67.10;;;;;;5097975;28;20089;-74
2021/07/20 03:07:33;;;;;;;8.07;6.07;;;21.70;66.50;;;;;;5098025;28;20374;-73
2021/07/20 03:10:00;;;;;;;6.88;5.60;;;21.70;66.50;;;;;;5098021;28;20134;-73
2021/07/20 03:12:28;;;;;;;6.47;5.07;;;21.70;66.50;;;;;;5097983;28;20466;-73
2021/07/20 03:14:57;;;;;;;7.20;5.65;;;21.70;66.60;;;;;;5098219;28;20048;-73
2021/07/20 03:17:25;;;;;;;7.15;5.30;;;21.70;66.50;;;;;;5098223;28;20201;-73
2021/07/20 03:19:52;;;;;;;6.75;5.63;;;21.60;66.50;;;;;;5097689;28;20044;-73
2021/07/20 03:22:23;;;;;;;6.20;5.05;;;21.70;66.60;;;;;;5097861;28;20048;-73
2021/07/20 03:24:50;;;;;;;6.68;5.38;;;21.70;66.60;;;;;;5097953;28;20052;-73
2021/07/20 03:27:17;;;;;;;7.20;5.68;;;21.60;66.50;;;;;;5098070;28;20040;-73
2021/07/20 03:29:44;;;;;;;6.63;5.30;;;21.70;66.60;;;;;;5079697;28;20051;-73
2021/07/20 03:32:13;;;;;;;7.05;5.38;;;21.60;66.50;;;;;;5097667;28;20047;-73
2021/07/20 03:34:41;;;;;;;6.32;5.22;;;21.60;66.40;;;;;;5097624;28;20340;-73
2021/07/20 03:37:08;;;;;;;6.65;5.20;;;21.60;66.40;;;;;;5097376;28;20044;-73
2021/07/20 03:39:36;;;;;;;6.38;5.10;;;21.60;66.50;;;;;;5097275;28;20044;-73
2021/07/20 03:42:03;;;;;;;6.32;5.00;;;21.60;66.50;;;;;;5097489;28;20376;-73
2021/07/20 03:44:30;;;;;;;7.07;5.32;;;21.60;66.50;;;;;;5097561;28;20044;-73
2021/07/20 03:46:57;;;;;;;6.93;5.43;;;21.60;66.60;;;;;;5097299;28;20347;-73
2021/07/20 03:49:26;;;;;;;7.13;5.65;;;21.70;66.60;;;;;;5097960;28;20044;-73
2021/07/20 03:51:54;;;;;;;6.57;5.20;;;21.60;66.60;;;;;;5097304;28;20114;-73
2021/07/20 03:54:21;;;;;;;6.93;5.45;;;21.60;66.60;;;;;;5097569;28;20077;-73
2021/07/20 03:56:48;;;;;;;5.40;4.65;;;21.60;66.60;;;;;;5097734;28;20048;-73
2021/07/20 03:59:15;;;;;;;7.45;5.60;;;21.60;67.10;;;;;;5097665;28;20036;-73
2021/07/20 04:01:45;;;;;;;7.22;5.32;;;21.60;66.50;;;;;;5097565;28;20044;-73
2021/07/20 04:04:16;;;;;;;6.82;5.35;;;21.60;66.50;;;;;;5097267;28;20123;-73
2021/07/20 04:06:43;;;;;;;7.25;5.22;;;21.60;66.60;;;;;;5097079;28;20040;-73
2021/07/20 04:09:12;;;;;;;6.80;5.53;;;21.60;66.50;;;;;;5097566;28;20387;-73
2021/07/20 04:11:39;;;;;;;6.05;5.00;;;21.60;66.50;;;;;;5097057;28;20126;-73
2021/07/20 04:14:06;;;;;;;7.07;5.53;;;21.60;66.50;;;;;;5096519;28;20040;-73
2021/07/20 04:16:33;;;;;;;7.38;5.47;;;21.60;66.50;;;;;;5096587;28;20044;-73
2021/07/20 04:19:00;;;;;;;6.50;5.18;;;21.60;66.50;;;;;;5096441;28;20043;-73
2021/07/20 04:21:26;;;;;;;6.75;5.40;;;21.60;66.50;;;;;;5096807;28;20443;-73
2021/07/20 04:23:53;;;;;;;6.25;4.80;;;21.60;66.50;;;;;;5096871;28;20036;-73
2021/07/20 04:26:21;;;;;;;7.35;5.47;;;21.60;66.50;;;;;;5096562;28;20328;-73
2021/07/20 04:28:47;;;;;;;6.40;5.20;;;21.60;66.60;;;;;;5096521;28;20443;-74
2021/07/20 04:31:17;;;;;;;7.53;5.80;;;21.60;66.60;;;;;;5096150;28;20044;-73
2021/07/20 04:33:46;;;;;;;8.00;5.10;;;21.60;66.60;;;;;;5097073;28;20051;-73
2021/07/20 04:36:16;;;;;;;6.55;5.47;;;21.60;66.60;;;;;;5096427;28;20039;-73
2021/07/20 04:38:42;;;;;;;6.63;5.38;;;21.60;66.60;;;;;;5096551;28;20450;-73
2021/07/20 04:41:09;;;;;;;6.90;5.13;;;21.50;66.50;;;;;;5095947;28;20067;-73
2021/07/20 04:43:36;;;;;;;7.63;5.57;;;21.50;66.50;;;;;;5096209;28;20060;-73
2021/07/20 04:46:04;;;;;;;6.88;5.10;;;21.60;66.60;;;;;;5096030;28;20040;-73
2021/07/20 04:48:33;;;;;;;6.97;5.63;;;21.50;66.50;;;;;;5096277;28;20183;-73
2021/07/20 04:50:59;;;;;;;7.40;5.47;;;21.50;66.50;;;;;;5095838;28;20411;-73
2021/07/20 04:53:25;;;;;;;6.40;5.18;;;21.50;66.50;;;;;;5096098;28;20040;-73
2021/07/20 04:55:52;;;;;;;7.30;5.55;;;21.50;66.50;;;;;;5095277;28;20062;-73
2021/07/20 04:58:18;;;;;;;7.00;5.00;;;21.50;66.50;;;;;;5096223;28;20051;-73
2021/07/20 05:00:49;;;;;;;7.30;5.85;;;21.50;66.50;;;;;;5095823;28;20055;-73
2021/07/20 05:03:17;;;;;;;7.28;6.00;;;21.60;66.60;;;;;;5096005;28;20040;-73
2021/07/20 05:05:44;;;;;;;7.20;5.70;;;21.60;66.60;;;;;;5095625;28;20067;-73
2021/07/20 05:08:14;;;;;;;8.02;5.38;;;21.50;66.60;;;;;;5095809;28;20044;-73
2021/07/20 05:10:45;;;;;;;6.95;5.60;;;21.50;66.60;;;;;;5096022;28;20040;-73
2021/07/20 05:13:20;;;;;;;7.45;5.57;;;21.50;66.60;;;;;;5095952;28;20040;-73
2021/07/20 05:15:56;;;;;;;6.32;5.30;;;21.50;66.60;;;;;;5095540;28;20028;-73
2021/07/20 05:18:22;;;;;;;5.63;4.65;;;21.50;66.50;;;;;;5095824;28;20104;-73
2021/07/20 05:20:50;;;;;;;7.72;5.78;;;21.50;66.60;;;;;;5095526;28;20119;-73
2021/07/20 05:23:18;;;;;;;7.25;5.38;;;21.50;66.50;;;;;;5095538;28;20032;-73
2021/07/20 05:25:47;;;;;;;6.70;5.07;;;21.50;66.50;;;;;;5095474;28;20051;-73
2021/07/20 05:28:14;;;;;;;7.50;5.55;;;21.50;66.60;;;;;;5095376;28;20347;-73
2021/07/20 05:30:42;;;;;;;6.97;5.25;;;21.50;66.50;;;;;;5095421;28;20047;-73
2021/07/20 05:33:08;;;;;;;7.35;5.55;;;21.50;66.60;;;;;;5095544;28;20123;-73
2021/07/20 05:35:35;;;;;;;6.90;5.72;;;21.50;66.60;;;;;;5095417;28;20118;-73
2021/07/20 05:38:02;;;;;;;7.00;5.45;;;21.50;66.60;;;;;;5095946;28;20079;-73
2021/07/20 05:40:28;;;;;;;7.28;5.47;;;21.50;66.60;;;;;;5095828;28;20040;-73
2021/07/20 05:42:58;;;;;;;8.20;6.22;;;21.50;66.50;;;;;;5095122;28;20051;-73
2021/07/20 05:45:26;;;;;;;7.38;5.28;;;21.50;66.60;;;;;;5095218;28;20324;-73
2021/07/20 05:47:52;;;;;;;6.75;5.00;;;21.50;66.60;;;;;;5095713;28;20450;-74
2021/07/20 05:50:19;;;;;;;7.30;5.63;;;21.50;66.60;;;;;;5095423;28;20052;-73
2021/07/20 05:52:49;;;;;;;7.65;5.43;;;21.50;66.60;;;;;;5095583;28;20086;-73
2021/07/20 05:55:17;;;;;;;6.72;4.88;;;21.50;66.60;;;;;;5094850;28;20051;-73
2021/07/20 05:57:46;;;;;;;7.47;5.65;;;21.50;66.60;;;;;;5095752;28;20367;-73
2021/07/20 06:00:13;;;;;;;7.25;5.43;;;21.50;66.60;;;;;;5095326;28;20043;-73
2021/07/20 06:02:41;;;;;;;8.40;5.65;;;21.50;66.60;;;;;;5102061;28;20336;-73
2021/07/20 06:05:08;;;;;;;5.82;4.85;;;21.50;66.60;;;;;;5102421;28;20051;-73
2021/07/20 06:07:36;;;;;;;6.45;5.18;;;21.50;66.60;;;;;;5101750;28;20032;-73
2021/07/20 06:10:03;;;;;;;6.70;5.22;;;21.50;66.60;;;;;;5101807;28;20066;-73
2021/07/20 06:12:30;;;;;;;6.72;5.50;;;21.50;66.60;;;;;;5101725;28;20067;-73
2021/07/20 06:14:57;;;;;;;6.40;5.40;;;21.50;66.60;;;;;;5101360;28;20039;-73
2021/07/20 06:17:24;;;;;;;6.93;5.50;;;21.50;66.50;;;;;;5102185;28;20055;-73
2021/07/20 06:19:51;;;;;;;7.80;5.38;;;21.50;66.60;;;;;;5101976;28;20039;-73
2021/07/20 06:22:21;;;;;;;6.75;5.63;;;21.50;66.50;;;;;;5101445;28;20391;-73
2021/07/20 06:24:48;;;;;;;7.07;5.28;;;21.60;66.60;;;;;;5101714;28;20036;-73
2021/07/20 06:27:15;;;;;;;6.15;5.50;;;21.60;66.50;;;;;;5101713;28;20485;-73
2021/07/20 06:29:45;;;;;;;7.25;5.88;;;21.60;66.60;;;;;;5101379;28;20043;-73
2021/07/20 06:32:13;;;;;;;5.75;4.65;;;21.60;66.60;;;;;;5101809;28;20119;-73
2021/07/20 06:34:39;;;;;;;6.82;5.40;;;21.60;66.60;;;;;;5101574;28;20044;-73
2021/07/20 06:37:06;;;;;;;6.07;5.13;;;21.60;66.60;;;;;;5101857;28;20118;-73
2021/07/20 06:39:33;;;;;;;6.53;5.53;;;21.60;66.60;;;;;;5101388;28;20043;-73
2021/07/20 06:42:00;;;;;;;6.25;5.05;;;21.60;66.60;;;;;;5101515;28;20043;-74
2021/07/20 06:44:28;;;;;;;7.40;5.68;;;21.60;66.60;;;;;;5101689;28;20046;-73
2021/07/20 06:46:55;;;;;;;6.50;5.35;;;21.70;66.60;;;;;;5101458;28;20123;-73
2021/07/20 06:49:21;;;;;;;6.57;5.07;;;21.70;66.60;;;;;;5101812;28;20050;-73
2021/07/20 06:51:48;;;;;;;6.53;5.25;;;21.70;66.60;;;;;;5101731;28;20048;-73
2021/07/20 06:54:15;;;;;;;5.97;4.90;;;21.70;66.60;;;;;;5101522;28;20040;-72
2021/07/20 06:56:47;;;;;;;6.60;5.30;;;21.70;66.60;;;;;;5101641;28;20442;-73
2021/07/20 06:59:13;;;;;;;6.55;5.22;;;21.70;66.60;;;;;;5101263;28;20048;-73
2021/07/20 07:01:42;;;;;;;8.25;6.13;;;21.80;66.60;;;;;;5101673;28;20119;-72
2021/07/20 07:04:09;;;;;;;7.15;5.35;;;21.80;66.50;;;;;;5101590;28;20119;-73
2021/07/20 07:06:41;;;;;;;7.60;6.05;;;21.80;66.60;;;;;;5101491;28;20071;-73
2021/07/20 07:09:09;;;;;;;6.85;5.60;;;21.80;66.50;;;;;;5100932;28;20036;-73
2021/07/20 07:11:35;;;;;;;5.97;5.07;;;21.80;66.50;;;;;;5101113;28;20184;-73
2021/07/20 07:14:02;;;;;;;8.10;5.38;;;21.80;66.50;;;;;;5096737;28;20040;-72
2021/07/20 07:16:29;;;;;;;8.73;4.85;;;21.90;64.40;;;;;;5098009;28;20163;-72
2021/07/20 07:18:56;;;;;;;9.65;5.30;;;21.80;61.30;;;;;;5097992;28;20047;-72
2021/07/20 07:21:23;;;;;;;13.93;5.53;;;21.70;61.70;;;;;;5097848;28;20047;-72
2021/07/20 07:23:51;;;;;;;7.63;5.07;;;21.60;62.20;;;;;;5097597;28;20044;-72
2021/07/20 07:26:18;;;;;;;10.40;5.43;;;21.70;62.70;;;;;;5098402;28;20048;-72
2021/07/20 07:28:45;;;;;;;14.32;5.68;;;21.70;63.00;;;;;;5098176;28;20036;-72
2021/07/20 07:31:15;;;;;;;18.30;6.22;;;21.70;63.30;;;;;;5097579;28;20043;-72
2021/07/20 07:33:42;;;;;;;22.63;6.88;;;21.70;63.30;;;;;;5097745;28;20115;-72
2021/07/20 07:36:10;;;;;;;8.40;5.10;;;21.70;63.40;;;;;;5097655;28;20098;-72
2021/07/20 07:38:38;;;;;;;9.80;4.97;;;21.80;61.60;;;;;;5097463;28;20062;-73
2021/07/20 07:41:05;;;;;;;9.90;4.78;;;21.70;61.50;;;;;;5097486;28;20043;-72
2021/07/20 07:43:34;;;;;;;10.20;5.10;;;21.70;61.70;;;;;;5097558;28;20105;-72
2021/07/20 07:46:01;;;;;;;11.70;4.85;;;21.70;61.90;;;;;;5097375;28;20047;-72
2021/07/20 07:48:29;;;;;;;11.70;5.53;;;21.80;62.30;;;;;;5097398;28;20123;-72
2021/07/20 07:50:58;;;;;;;12.75;5.70;;;21.80;62.40;;;;;;5097811;28;20043;-72
2021/07/20 07:53:24;;;;;;;11.18;5.38;;;21.80;62.60;;;;;;5097727;28;20044;-72
2021/07/20 07:55:53;;;;;;;11.60;5.45;;;21.80;62.70;;;;;;5097398;28;20436;-72
2021/07/20 07:58:19;;;;;;;13.82;6.13;;;21.80;62.60;;;;;;5097144;28;20043;-72
2021/07/20 08:00:47;;;;;;;14.77;5.72;;;21.90;62.60;;;;;;5097167;28;20359;-72
2021/07/20 08:03:16;;;;;;;11.18;5.53;;;21.90;62.50;;;;;;5097618;28;20087;-72
2021/07/20 08:05:45;;;;;;;10.32;5.25;;;21.90;62.60;;;;;;5096986;28;20052;-72
2021/07/20 08:08:11;;;;;;;11.10;4.70;;;21.90;62.60;;;;;;5097028;28;20089;-72
2021/07/20 08:10:41;;;;;;;8.35;4.85;;;21.90;62.30;;;;;;5096969;28;20067;-72
2021/07/20 08:13:07;;;;;;;10.82;5.28;;;21.90;62.30;;;;;;5097181;28;20087;-72
2021/07/20 08:15:35;;;;;;;10.75;5.53;;;21.90;62.30;;;;;;5096852;28;20405;-72
2021/07/20 08:18:01;;;;;;;10.18;4.95;;;21.90;62.30;;;;;;5096816;28;20123;-72
2021/07/20 08:20:28;;;;;;;9.32;4.55;;;21.90;62.20;;;;;;5096774;28;20134;-72
2021/07/20 08:22:54;;;;;;;6.40;4.03;;;21.90;62.10;;;;;;5097251;28;20036;-72
2021/07/20 08:25:45;;;;;;;12.35;4.70;;;22.00;62.20;;;;;;5095649;28;20127;-72
2021/07/20 08:28:28;;;;;;;14.23;5.43;;;22.00;62.00;;;;;;5096593;28;20040;-72
2021/07/20 08:30:59;;;;;;;8.95;4.95;;;22.00;62.00;;;;;;5096528;28;20048;-72
2021/07/20 08:33:29;;;;;;;11.70;4.25;;;22.00;61.70;;;;;;5096826;28;20122;-72
2021/07/20 08:36:00;;;;;;;10.32;4.20;;;22.00;61.80;;;;;;5096951;28;20432;-72
2021/07/20 08:38:30;;;;;;;8.05;4.03;;;22.00;61.70;;;;;;5096578;28;20036;-72
2021/07/20 08:40:58;;;;;;;10.75;4.43;;;22.00;61.70;;;;;;5095942;28;20104;-72
2021/07/20 08:43:32;;;;;;;8.00;4.05;;;22.00;61.70;;;;;;5096248;28;20044;-72
2021/07/20 08:46:10;;;;;;;;;;;22.00;61.70;;;;;;5096874;28;20111;-72
2021/07/20 08:49:00;;;;;;;7.82;4.28;;;22.00;61.30;;;;;;5096125;28;19958;-72
2021/07/20 08:51:38;;;;;;;10.10;4.03;;;22.00;61.60;;;;;;5096017;28;20043;-72
2021/07/20 08:54:12;;;;;;;6.60;4.40;;;22.00;61.10;;;;;;5096501;28;20043;-72
2021/07/20 08:56:44;;;;;;;6.63;4.07;;;22.00;61.40;;;;;;5095867;28;20467;-71
2021/07/20 08:59:17;;;;;;;7.50;3.72;;;22.10;61.50;;;;;;5096115;28;20044;-72
2021/07/20 09:01:54;;;;;;;7.22;3.70;;;22.00;61.10;;;;;;5095582;28;20050;-72
2021/07/20 09:04:30;;;;;;;7.57;3.90;;;22.10;61.20;;;;;;5095917;28;20102;-72
2021/07/20 09:07:22;;;;;;;8.77;3.67;;;22.10;61.10;;;;;;5095875;28;20047;-71
2021/07/20 09:09:49;;;;;;;5.88;3.60;;;22.10;60.80;;;;;;5095638;28;20039;-72
2021/07/20 09:12:20;;;;;;;5.55;3.60;;;22.10;61.30;;;;;;5095714;28;20043;-72
2021/07/20 09:14:51;;;;;;;5.75;3.33;;;22.10;61.40;;;;;;5095284;28;20435;-72
2021/07/20 09:17:38;;;;;;;5.57;3.75;;;22.10;61.50;;;;;;5095639;28;20124;-72
2021/07/20 09:20:14;;;;;;;6.78;3.55;;;22.00;61.20;;;;;;5096111;28;20101;-72
2021/07/20 09:23:01;;;;;;;4.72;3.22;;;22.10;61.40;;;;;;5094950;28;20113;-72
2021/07/20 09:25:39;;;;;;;5.88;3.25;;;22.00;60.80;;;;;;5095553;28;20043;-72
2021/07/20 09:28:27;;;;;;;6.43;3.47;;;22.10;59.00;;;;;;5095900;28;20043;-71
2021/07/20 09:30:54;;;;;;;5.88;3.17;;;22.00;59.20;;;;;;5095480;28;20094;-71
2021/07/20 09:33:46;;;;;;;4.90;3.28;;;22.00;59.70;;;;;;5095035;28;20032;-72
2021/07/20 09:36:24;;;;;;;5.97;3.45;;;22.00;59.90;;;;;;5094910;28;20044;-71
2021/07/20 09:38:58;;;;;;;4.93;3.22;;;22.00;59.90;;;;;;5095806;28;20438;-71
2021/07/20 09:41:50;;;;;;;4.03;3.33;;;22.10;60.30;;;;;;5095537;28;20119;-71
2021/07/20 09:44:31;;;;;;;4.85;3.35;;;22.10;60.30;;;;;;5094979;28;20044;-72
2021/07/20 09:47:26;;;;;;;5.28;3.80;;;22.10;60.10;;;;;;5095181;28;20119;-71
2021/07/20 09:50:09;;;;;;;3.95;3.05;;;22.10;60.10;;;;;;5090255;28;20139;-72
2021/07/20 09:52:39;;;;;;;6.65;3.03;;;22.10;60.10;;;;;;5095617;28;20044;-72
2021/07/20 09:55:42;;;;;;;4.80;2.92;;;22.10;60.10;;;;;;5095150;28;20055;-72
2021/07/20 09:58:26;;;;;;;5.40;3.57;;;22.10;60.10;;;;;;5094990;28;20040;-72
2021/07/20 10:01:00;;;;;;;;;;;22.20;60.20;;;;;;5096025;28;20051;-71
2021/07/20 10:03:59;;;;;;;6.82;3.42;;;22.10;60.30;;;;;;5095078;28;19969;-71
2021/07/20 10:06:31;;;;;;;6.82;3.80;;;22.20;60.40;;;;;;5095025;28;20040;-71
2021/07/20 10:09:02;;;;;;;5.90;3.22;;;22.20;60.60;;;;;;5094835;28;20454;-71
2021/07/20 10:11:54;;;;;;;4.82;3.10;;;22.20;60.70;;;;;;5094602;28;20444;-71
2021/07/20 10:14:31;;;;;;;6.30;3.22;;;22.20;60.60;;;;;;5095030;28;20047;-71
2021/07/20 10:17:25;;;;;;;4.45;2.85;;;22.20;60.60;;;;;;5094846;28;20044;-72
2021/07/20 10:20:01;;;;;;;7.00;3.92;;;22.20;60.60;;;;;;5094885;28;20048;-71
2021/07/20 10:22:52;;;;;;;6.63;3.60;;;22.20;60.50;;;;;;5094790;28;20059;-71
2021/07/20 10:25:32;;;;;;;12.00;3.40;;;22.20;59.10;;;;;;5094842;28;20054;-72
2021/07/20 10:28:06;;;;;;;11.80;3.83;;;22.10;57.80;;;;;;5095255;28;20083;-72
2021/07/20 10:30:36;;;;;;;8.27;3.50;;;22.00;57.10;;;;;;5094828;28;20044;-72
2021/07/20 10:33:23;;;;;;;4.88;3.38;;;21.90;57.10;;;;;;5094824;28;20040;-72
2021/07/20 10:36:23;;;;;;;7.25;3.67;;;21.80;56.50;;;;;;5094409;28;20040;-72
2021/07/20 10:39:03;;;;;;;5.90;3.60;;;21.80;57.50;;;;;;5094835;28;20064;-72
2021/07/20 10:41:38;;;;;;;5.47;3.22;;;21.80;58.00;;;;;;5094685;28;20119;-72
2021/07/20 10:44:09;;;;;;;5.63;3.50;;;21.80;58.40;;;;;;5094558;28;20065;-72
2021/07/20 10:46:36;;;;;;;5.40;3.70;;;21.80;58.70;;;;;;5094620;28;20106;-72
2021/07/20 10:49:21;;;;;;;6.30;3.45;;;21.90;58.90;;;;;;5097443;28;20123;-71
2021/07/20 10:51:53;;;;;;;4.90;3.10;;;21.90;59.00;;;;;;5098349;28;20111;-71
2021/07/20 10:54:30;;;;;;;4.47;3.42;;;21.90;59.10;;;;;;5098900;28;20431;-71
2021/07/20 10:56:59;;;;;;;5.78;3.38;;;22.00;59.00;;;;;;5097984;28;20058;-71
2021/07/20 10:59:46;;;;;;;5.13;3.65;;;22.00;59.20;;;;;;5097848;28;20044;-71
2021/07/20 11:02:30;;;;;;;5.10;3.42;;;22.00;59.10;;;;;;5098095;28;20044;-71
2021/07/20 11:05:03;;;;;;;6.85;3.30;;;22.00;59.10;;;;;;5098161;28;20051;-71
2021/07/20 11:07:30;;;;;;;6.93;3.55;;;22.00;59.20;;;;;;5098677;28;20059;-71
2021/07/20 11:10:10;;;;;;;4.22;2.95;;;22.10;59.50;;;;;;5098068;28;20053;-71
2021/07/20 11:12:38;;;;;;;6.00;3.80;;;22.10;59.50;;;;;;5098057;28;20043;-71
2021/07/20 11:15:05;;;;;;;5.25;3.50;;;22.10;59.60;;;;;;5097962;28;20123;-71
2021/07/20 11:17:34;;;;;;;13.13;4.05;;;22.10;59.40;;;;;;5097839;28;20054;-72
2021/07/20 11:20:05;;;;;;;8.48;3.80;;;22.10;58.70;;;;;;5097622;28;20435;-72
2021/07/20 11:22:33;;;;;;;6.82;3.65;;;22.00;58.30;;;;;;5098358;28;20058;-71
2021/07/20 11:24:59;;;;;;;6.72;3.92;;;22.00;58.10;;;;;;5098404;28;20044;-71
2021/07/20 11:27:26;;;;;;;4.15;3.35;;;21.90;57.60;;;;;;5097826;28;20078;-71
2021/07/20 11:29:52;;;;;;;3.92;3.25;;;21.90;56.90;;;;;;5097613;28;20450;-71
2021/07/20 11:32:30;;;;;;;6.80;4.40;;;21.80;56.80;;;;;;5097701;28;20466;-71
2021/07/20 11:35:09;;;;;;;5.57;3.85;;;21.80;57.10;;;;;;5097475;28;20335;-71
2021/07/20 11:37:39;;;;;;;4.63;3.67;;;21.80;57.60;;;;;;5097710;28;20064;-71
2021/07/20 11:40:10;;;;;;;4.78;3.65;;;21.80;56.70;;;;;;5097540;28;20040;-71
2021/07/20 11:42:55;;;;;;;4.55;3.00;;;21.80;57.00;;;;;;5097487;28;20040;-72
2021/07/20 11:45:21;;;;;;;5.40;3.20;;;21.80;56.60;;;;;;5097986;28;20109;-71
2021/07/20 11:48:10;;;;;;;6.82;3.70;;;21.70;56.80;;;;;;5097853;28;20118;-71
2021/07/20 11:50:54;;;;;;;4.13;3.22;;;21.70;57.10;;;;;;5097905;28;20040;-71
2021/07/20 11:53:28;;;;;;;6.28;3.67;;;21.80;57.30;;;;;;5097803;28;20123;-71
2021/07/20 11:56:04;;;;;;;;;;;21.80;57.40;;;;;;5097395;28;20052;-71
2021/07/20 11:58:54;;;;;;;7.93;3.95;;;21.80;57.70;;;;;;5096937;28;19928;-71
2021/07/20 12:01:44;;;;;;;6.53;3.65;;;21.80;57.80;;;;;;5096835;28;20040;-72
2021/07/20 12:04:42;;;;;;;8.27;3.90;;;21.80;58.00;;;;;;5097585;28;20069;-71
2021/07/20 12:07:28;;;;;;;7.05;3.88;;;21.80;58.30;;;;;;5097153;28;20096;-71
2021/07/20 12:10:06;;;;;;;10.35;4.20;;;21.90;58.60;;;;;;5097036;28;20418;-71
2021/07/20 12:12:54;;;;;;;4.78;3.70;;;21.90;58.70;;;;;;5097015;28;20090;-71
2021/07/20 12:15:22;;;;;;;9.80;4.07;;;21.90;58.80;;;;;;5096961;28;20064;-71
2021/07/20 12:17:49;;;;;;;6.22;3.80;;;21.90;58.80;;;;;;5096741;28;20087;-71
2021/07/20 12:20:18;;;;;;;5.25;3.40;;;22.00;59.60;;;;;;5097138;28;20039;-71
2021/07/20 12:22:49;;;;;;;5.38;3.72;;;22.00;59.00;;;;;;5097325;28;20048;-71
2021/07/20 12:25:16;;;;;;;5.03;3.95;;;22.00;59.10;;;;;;5096560;28;20115;-71
2021/07/20 12:27:45;;;;;;;5.78;3.40;;;22.00;59.10;;;;;;5096841;28;20092;-71
2021/07/20 12:30:14;;;;;;;6.05;3.78;;;22.00;59.20;;;;;;5097105;28;20074;-71
2021/07/20 12:32:43;;;;;;;5.75;3.38;;;22.10;59.30;;;;;;5096379;28;20036;-71
2021/07/20 12:35:20;;;;;;;7.57;3.22;;;22.10;59.40;;;;;;5096432;28;20062;-71
2021/07/20 12:38:02;;;;;;;5.70;3.78;;;22.10;59.50;;;;;;5096426;28;20047;-71
2021/07/20 12:40:31;;;;;;;6.60;3.45;;;22.10;59.60;;;;;;5096215;28;20501;-72
2021/07/20 12:43:06;;;;;;;5.90;3.40;;;22.10;59.60;;;;;;5096588;28;20075;-72
2021/07/20 12:45:32;;;;;;;5.63;3.92;;;22.10;59.70;;;;;;5096863;28;20044;-72
2021/07/20 12:47:58;;;;;;;6.38;3.83;;;22.10;59.80;;;;;;5096588;28;20374;-71
2021/07/20 12:50:24;;;;;;;5.80;3.60;;;22.20;59.90;;;;;;5096258;28;20044;-72
2021/07/20 12:52:51;;;;;;;5.60;3.20;;;22.20;59.90;;;;;;5096330;28;20423;-72
2021/07/20 12:55:20;;;;;;;4.45;3.13;;;22.20;60.00;;;;;;5096194;28;20134;-72
2021/07/20 12:57:58;;;;;;;5.43;3.85;;;22.20;60.10;;;;;;5096010;28;20032;-72
2021/07/20 13:00:28;;;;;;;6.80;3.50;;;22.20;60.10;;;;;;5095795;28;20451;-71
2021/07/20 13:02:57;;;;;;;5.68;3.60;;;22.20;60.20;;;;;;5095981;28;20138;-71
2021/07/20 13:05:28;;;;;;;6.50;3.85;;;22.20;60.30;;;;;;5096384;28;20359;-71
2021/07/20 13:07:59;;;;;;;6.78;3.92;;;22.30;60.40;;;;;;5095931;28;20070;-71
2021/07/20 13:10:30;;;;;;;4.65;3.50;;;22.30;60.50;;;;;;5095133;28;20115;-71
2021/07/20 13:12:58;;;;;;;6.63;3.88;;;22.30;60.50;;;;;;5095902;28;20066;-71